createdAt,value
2017-06-09T00:01:28.120Z,14.10
2017-06-09T00:03:56.916Z,14.00
2017-06-09T00:06:25.692Z,14.00
2017-06-09T00:08:54.464Z,14.20
2017-06-09T00:11:25.364Z,14.10
2017-06-09T00:13:54.156Z,14.10
2017-06-09T00:16:22.941Z,14.00
2017-06-09T00:18:51.712Z,13.90
2017-06-09T00:21:20.492Z,14.00
2017-06-09T00:23:49.268Z,14.00
2017-06-09T00:26:18.056Z,14.00
2017-06-09T00:28:46.836Z,13.90
2017-06-09T00:31:15.612Z,14.00
2017-06-09T00:33:44.520Z,14.00
2017-06-09T00:36:13.316Z,13.90
2017-06-09T00:38:42.100Z,13.80
2017-06-09T00:41:11.036Z,13.80
2017-06-09T00:43:39.828Z,13.90
2017-06-09T00:46:08.611Z,13.90
2017-06-09T00:48:37.512Z,14.00
2017-06-09T00:51:06.552Z,13.90
2017-06-09T00:53:35.328Z,14.20
2017-06-09T00:56:04.112Z,14.20
2017-06-09T00:58:32.896Z,14.10
2017-06-09T01:01:01.672Z,13.80
2017-06-09T01:03:30.592Z,13.80
2017-06-09T01:05:59.367Z,13.80
2017-06-09T01:08:31.883Z,13.80
2017-06-09T01:11:00.672Z,13.80
2017-06-09T01:13:29.452Z,13.90
2017-06-09T01:15:58.236Z,14.00
2017-06-09T01:18:27.008Z,14.20
2017-06-09T01:20:56.695Z,14.10
2017-06-09T01:23:25.488Z,14.10
2017-06-09T01:25:54.276Z,14.10
2017-06-09T01:28:23.047Z,14.00
2017-06-09T01:30:51.963Z,14.00
2017-06-09T01:33:21.671Z,13.80
2017-06-09T01:35:50.451Z,13.50
2017-06-09T01:38:19.244Z,13.40
2017-06-09T01:40:48.035Z,13.30
2017-06-09T01:43:20.023Z,13.20
2017-06-09T01:45:48.807Z,13.40
2017-06-09T01:48:17.583Z,13.50
2017-06-09T01:50:46.404Z,13.50
2017-06-09T01:53:15.184Z,13.40
2017-06-09T01:55:43.955Z,13.40
2017-06-09T01:58:12.743Z,13.30
2017-06-09T02:00:41.527Z,13.30
2017-06-09T02:03:10.307Z,13.20
2017-06-09T02:05:39.219Z,13.30
2017-06-09T02:08:07.223Z,13.30
2017-06-09T02:10:37.891Z,13.40
2017-06-09T02:13:06.679Z,13.50
2017-06-09T02:15:35.460Z,13.50
2017-06-09T02:18:04.243Z,13.40
2017-06-09T02:20:33.055Z,13.40
2017-06-09T02:23:01.835Z,13.30
2017-06-09T02:25:30.619Z,13.10
2017-06-09T02:27:59.431Z,13.00
2017-06-09T02:30:28.207Z,12.90
2017-06-09T02:32:56.987Z,12.80
2017-06-09T02:35:25.910Z,12.70
2017-06-09T02:37:54.694Z,12.70
2017-06-09T02:40:25.603Z,12.90
2017-06-09T02:42:54.379Z,13.00
2017-06-09T02:45:23.159Z,13.20
2017-06-09T02:47:51.967Z,13.20
2017-06-09T02:50:20.759Z,13.20
2017-06-09T02:52:53.867Z,13.30
2017-06-09T02:55:22.635Z,13.50
2017-06-09T02:57:51.422Z,13.60
2017-06-09T03:00:20.211Z,13.60
2017-06-09T03:02:49.987Z,13.60
2017-06-09T03:05:18.831Z,13.70
2017-06-09T03:07:47.626Z,13.80
2017-06-09T03:10:16.406Z,13.80
2017-06-09T03:12:45.182Z,13.80
2017-06-09T03:15:13.954Z,13.90
2017-06-09T03:17:42.730Z,13.90
2017-06-09T03:20:11.506Z,14.00
2017-06-09T03:22:40.338Z,14.00
2017-06-09T03:25:09.130Z,14.00
2017-06-09T03:27:37.906Z,13.70
2017-06-09T03:30:06.690Z,13.60
2017-06-09T03:32:41.178Z,13.30
2017-06-09T03:35:09.959Z,13.40
2017-06-09T03:37:38.746Z,13.40
2017-06-09T03:40:07.534Z,13.40
2017-06-09T03:42:36.323Z,13.40
2017-06-09T03:45:05.102Z,13.50
2017-06-09T03:47:33.870Z,13.40
2017-06-09T03:50:02.778Z,13.40
2017-06-09T03:52:32.126Z,13.40
2017-06-09T03:55:00.927Z,13.60
2017-06-09T03:57:30.106Z,13.60
2017-06-09T03:59:58.894Z,13.60
2017-06-09T04:02:27.665Z,13.70
2017-06-09T04:04:56.565Z,13.80
2017-06-09T04:07:25.962Z,13.90
2017-06-09T04:09:55.073Z,13.90
2017-06-09T04:12:24.070Z,14.00
2017-06-09T04:14:52.874Z,14.00
2017-06-09T04:17:21.634Z,14.10
2017-06-09T04:19:50.542Z,14.10
2017-06-09T04:22:19.323Z,14.20
2017-06-09T04:24:48.210Z,14.20
2017-06-09T04:27:16.948Z,14.20
2017-06-09T04:29:45.718Z,14.30
2017-06-09T04:32:14.581Z,14.30
2017-06-09T04:34:43.422Z,14.40
2017-06-09T04:37:12.269Z,14.40
2017-06-09T04:39:41.058Z,14.40
2017-06-09T04:42:09.826Z,14.40
2017-06-09T04:44:38.602Z,14.50
2017-06-09T04:47:07.370Z,14.50
2017-06-09T04:49:36.154Z,14.60
2017-06-09T04:52:04.937Z,14.70
2017-06-09T04:54:34.605Z,14.70
2017-06-09T04:57:04.229Z,14.80
2017-06-09T04:59:33.005Z,14.90
2017-06-09T05:02:01.777Z,15.10
2017-06-09T05:04:30.653Z,15.10
2017-06-09T05:06:59.381Z,15.20
2017-06-09T05:09:28.141Z,15.50
2017-06-09T05:14:35.282Z,15.70
2017-06-09T05:17:04.082Z,15.80
2017-06-09T05:19:32.857Z,15.90
2017-06-09T05:22:01.635Z,16.10
2017-06-09T05:24:30.409Z,16.10
2017-06-09T05:26:59.181Z,16.00
2017-06-09T05:29:33.793Z,15.90
2017-06-09T05:32:02.560Z,15.90
2017-06-09T05:34:31.334Z,16.00
2017-06-09T05:37:00.104Z,16.10
2017-06-09T05:39:28.869Z,16.20
2017-06-09T05:41:57.645Z,16.30
2017-06-09T05:44:26.633Z,16.50
2017-06-09T05:46:55.417Z,16.60
2017-06-09T05:49:24.617Z,16.60
2017-06-09T05:51:53.417Z,16.80
2017-06-09T05:54:22.184Z,16.80
2017-06-09T05:56:50.945Z,16.80
2017-06-09T05:59:19.860Z,17.00
2017-06-09T06:01:48.624Z,17.10
2017-06-09T06:04:17.400Z,17.30
2017-06-09T06:06:46.288Z,17.40
2017-06-09T06:09:15.052Z,17.50
2017-06-09T06:11:43.820Z,17.60
2017-06-09T06:14:12.629Z,17.70
2017-06-09T06:16:41.441Z,17.70
2017-06-09T06:19:10.168Z,17.80
2017-06-09T06:21:39.064Z,17.90
2017-06-09T06:24:07.828Z,18.00
2017-06-09T06:26:36.596Z,18.10
2017-06-09T06:29:05.629Z,18.30
2017-06-09T06:31:34.389Z,18.30
2017-06-09T06:34:03.156Z,18.20
2017-06-09T06:36:31.964Z,18.30
2017-06-09T06:39:00.712Z,18.40
2017-06-09T06:41:28.720Z,18.40
2017-06-09T06:43:57.543Z,18.60
2017-06-09T06:46:26.312Z,18.70
2017-06-09T06:48:55.076Z,18.70
2017-06-09T06:51:23.876Z,18.80
2017-06-09T06:53:52.652Z,18.90
2017-06-09T06:56:21.424Z,19.00
2017-06-09T06:58:50.200Z,19.20
2017-06-09T07:01:18.964Z,19.30
2017-06-09T07:03:47.728Z,19.40
2017-06-09T07:06:16.500Z,19.40
2017-06-09T07:08:45.273Z,19.50
2017-06-09T07:11:14.040Z,19.60
2017-06-09T07:13:43.815Z,19.70
2017-06-09T07:16:12.585Z,19.80
2017-06-09T07:18:41.360Z,20.00
2017-06-09T07:21:10.161Z,20.00
2017-06-09T07:23:38.927Z,20.00
2017-06-09T07:26:07.688Z,20.20
2017-06-09T07:28:36.587Z,20.20
2017-06-09T07:31:05.348Z,20.30
2017-06-09T07:33:34.119Z,20.50
2017-06-09T07:36:02.892Z,20.60
2017-06-09T07:38:31.663Z,20.60
2017-06-09T07:41:00.443Z,20.70
2017-06-09T07:43:29.323Z,20.80
2017-06-09T07:45:58.087Z,20.90
2017-06-09T07:48:26.111Z,20.90
2017-06-09T07:50:55.927Z,21.00
2017-06-09T07:53:24.695Z,21.00
2017-06-09T07:55:53.476Z,21.10
2017-06-09T07:58:22.255Z,21.00
2017-06-09T08:00:51.015Z,21.00
2017-06-09T08:03:19.787Z,21.00
2017-06-09T08:05:48.562Z,21.10
2017-06-09T08:08:17.327Z,21.10
2017-06-09T08:10:46.095Z,21.30
2017-06-09T08:13:14.875Z,21.20
2017-06-09T08:15:43.631Z,21.40
2017-06-09T08:18:12.400Z,21.40
2017-06-09T08:20:41.171Z,21.60
2017-06-09T08:23:09.935Z,21.60
2017-06-09T08:25:38.703Z,21.70
2017-06-09T08:28:07.479Z,21.90
2017-06-09T08:30:36.238Z,21.90
2017-06-09T08:33:05.003Z,21.70
2017-06-09T08:35:33.774Z,21.70
2017-06-09T08:38:01.774Z,21.70
2017-06-09T08:40:30.535Z,22.10
2017-06-09T08:42:59.303Z,22.20
2017-06-09T08:45:28.066Z,22.20
2017-06-09T08:47:56.831Z,22.30
2017-06-09T08:50:25.603Z,22.50
2017-06-09T08:52:54.582Z,22.60
2017-06-09T08:55:23.330Z,22.60
2017-06-09T08:57:52.131Z,22.70
2017-06-09T09:00:20.902Z,22.50
2017-06-09T09:02:49.654Z,22.50
2017-06-09T09:05:18.426Z,22.60
2017-06-09T09:07:47.191Z,23.00
2017-06-09T09:10:15.954Z,23.00
2017-06-09T09:12:44.722Z,23.00
2017-06-09T09:15:13.482Z,23.10
2017-06-09T09:17:42.246Z,23.40
2017-06-09T09:20:11.014Z,23.50
2017-06-09T09:22:39.778Z,23.70
2017-06-09T09:25:08.539Z,23.80
2017-06-09T09:27:37.314Z,23.90
2017-06-09T09:30:06.086Z,24.00
2017-06-09T09:32:34.850Z,24.10
2017-06-09T09:35:03.781Z,24.10
2017-06-09T09:37:32.546Z,24.20
2017-06-09T09:40:01.313Z,23.90
2017-06-09T09:42:30.110Z,23.80
2017-06-09T09:44:58.849Z,23.70
2017-06-09T09:47:27.609Z,23.90
2017-06-09T09:49:56.377Z,24.00
2017-06-09T09:52:25.138Z,24.00
2017-06-09T09:54:53.897Z,24.10
2017-06-09T09:57:22.678Z,24.10
2017-06-09T09:59:51.442Z,24.20
2017-06-09T10:02:20.217Z,24.20
2017-06-09T10:04:48.986Z,24.30
2017-06-09T10:07:17.746Z,24.30
2017-06-09T10:09:46.513Z,24.60
2017-06-09T10:12:15.289Z,24.70
2017-06-09T10:14:44.057Z,24.70
2017-06-09T10:17:12.821Z,24.80
2017-06-09T10:19:41.713Z,25.10
2017-06-09T10:22:10.485Z,24.80
2017-06-09T10:24:39.245Z,25.00
2017-06-09T10:27:08.041Z,24.90
2017-06-09T10:29:36.805Z,25.10
2017-06-09T10:32:05.589Z,25.00
2017-06-09T10:34:34.357Z,25.00
2017-06-09T10:37:03.117Z,25.00
2017-06-09T10:39:31.877Z,25.40
2017-06-09T10:42:00.657Z,25.30
2017-06-09T10:44:29.429Z,25.50
2017-06-09T10:46:58.205Z,25.30
2017-06-09T10:49:26.989Z,25.30
2017-06-09T10:51:55.757Z,25.40
2017-06-09T10:54:24.521Z,25.10
2017-06-09T10:56:53.305Z,25.40
2017-06-09T10:59:22.076Z,25.50
2017-06-09T11:01:50.853Z,25.50
2017-06-09T11:04:19.696Z,25.70
2017-06-09T11:06:48.429Z,25.50
2017-06-09T11:09:17.192Z,25.40
2017-06-09T11:11:45.973Z,25.30
2017-06-09T11:14:14.744Z,25.50
2017-06-09T11:16:43.524Z,25.70
2017-06-09T11:19:12.296Z,25.80
2017-06-09T11:21:41.064Z,25.70
2017-06-09T11:24:09.844Z,25.50
2017-06-09T11:26:38.612Z,25.40
2017-06-09T11:29:07.387Z,25.30
2017-06-09T11:31:36.152Z,25.20
2017-06-09T11:34:04.953Z,25.40
2017-06-09T11:36:33.728Z,25.50
2017-06-09T11:39:02.496Z,25.50
2017-06-09T11:41:31.268Z,25.60
2017-06-09T11:43:59.633Z,25.60
2017-06-09T11:46:28.548Z,25.50
2017-06-09T11:48:58.315Z,25.50
2017-06-09T11:51:27.256Z,25.50
2017-06-09T11:53:56.024Z,25.70
2017-06-09T11:56:24.804Z,25.60
2017-06-09T11:58:53.569Z,25.60
2017-06-09T12:01:22.334Z,25.50
2017-06-09T12:03:51.108Z,25.40
2017-06-09T12:06:20.868Z,25.50
2017-06-09T12:08:49.632Z,25.50
2017-06-09T12:11:18.420Z,25.70
2017-06-09T12:13:47.192Z,25.50
2017-06-09T12:16:15.956Z,25.60
2017-06-09T12:18:44.959Z,25.40
2017-06-09T12:21:13.684Z,25.40
2017-06-09T12:23:42.456Z,25.30
2017-06-09T12:26:11.240Z,25.50
2017-06-09T12:28:40.024Z,25.60
2017-06-09T12:31:08.788Z,25.40
2017-06-09T12:33:37.559Z,25.40
2017-06-09T12:36:06.327Z,25.50
2017-06-09T12:38:35.100Z,25.50
2017-06-09T12:41:03.900Z,25.40
2017-06-09T12:43:32.664Z,25.50
2017-06-09T12:46:01.435Z,25.40
2017-06-09T12:48:30.224Z,25.50
2017-06-09T12:50:58.992Z,25.50
2017-06-09T12:53:27.763Z,25.30
2017-06-09T12:55:56.568Z,25.40
2017-06-09T12:58:25.335Z,25.50
2017-06-09T13:00:54.099Z,25.60
2017-06-09T13:03:22.876Z,25.50
2017-06-09T13:05:51.643Z,25.50
2017-06-09T13:08:20.407Z,25.20
2017-06-09T13:10:49.303Z,25.20
2017-06-09T13:13:18.075Z,25.20
2017-06-09T13:15:46.840Z,25.20
2017-06-09T13:18:15.611Z,25.30
2017-06-09T13:20:44.375Z,25.40
2017-06-09T13:23:13.143Z,25.50
2017-06-09T13:25:42.027Z,25.50
2017-06-09T13:28:10.795Z,25.40
2017-06-09T13:30:39.591Z,25.50
2017-06-09T13:33:08.339Z,25.80
2017-06-09T13:35:37.099Z,25.70
2017-06-09T13:38:05.871Z,25.80
2017-06-09T13:40:34.778Z,25.90
2017-06-09T13:43:03.544Z,25.30
2017-06-09T13:45:32.302Z,25.00
2017-06-09T13:48:01.079Z,25.00
2017-06-09T13:50:29.855Z,24.90
2017-06-09T13:52:57.854Z,24.90
2017-06-09T13:55:26.630Z,24.60
2017-06-09T13:57:55.398Z,24.50
2017-06-09T14:00:24.162Z,24.40
2017-06-09T14:02:52.934Z,24.30
2017-06-09T14:05:21.698Z,24.00
2017-06-09T14:07:50.467Z,23.90
2017-06-09T14:10:19.366Z,23.80
2017-06-09T14:12:48.126Z,23.60
2017-06-09T14:15:16.890Z,23.40
2017-06-09T14:17:45.662Z,23.30
2017-06-09T14:20:14.438Z,23.30
2017-06-09T14:22:43.191Z,23.30
2017-06-09T14:25:11.983Z,23.10
2017-06-09T14:27:40.742Z,23.30
2017-06-09T14:30:09.503Z,23.40
2017-06-09T14:32:38.278Z,23.20
2017-06-09T14:35:07.042Z,23.10
2017-06-09T14:37:35.815Z,23.00
2017-06-09T14:40:04.578Z,22.90
2017-06-09T14:42:33.338Z,22.60
2017-06-09T14:45:02.102Z,22.60
2017-06-09T14:47:30.990Z,22.60
2017-06-09T14:49:59.754Z,22.50
2017-06-09T14:52:28.514Z,22.60
2017-06-09T14:54:57.286Z,22.50
2017-06-09T14:57:26.091Z,22.60
2017-06-09T14:59:54.834Z,22.80
2017-06-09T15:02:23.730Z,22.90
2017-06-09T15:04:52.493Z,22.70
2017-06-09T15:07:21.262Z,22.60
2017-06-09T15:09:50.033Z,22.60
2017-06-09T15:12:18.793Z,22.80
2017-06-09T15:14:47.601Z,22.80
2017-06-09T15:17:16.489Z,22.60
2017-06-09T15:19:45.254Z,22.60
2017-06-09T15:22:14.018Z,22.40
2017-06-09T15:24:42.909Z,22.20
2017-06-09T15:27:11.677Z,22.00
2017-06-09T15:29:40.442Z,22.20
2017-06-09T15:32:09.334Z,22.00
2017-06-09T15:34:38.101Z,21.80
2017-06-09T15:37:06.858Z,21.70
2017-06-09T15:39:35.753Z,21.80
2017-06-09T15:42:04.541Z,21.70
2017-06-09T15:44:33.301Z,21.70
2017-06-09T15:47:02.090Z,21.70
2017-06-09T15:49:30.849Z,21.70
2017-06-09T15:51:59.613Z,21.80
2017-06-09T15:54:28.390Z,21.70
2017-06-09T15:56:57.149Z,21.80
2017-06-09T15:59:25.913Z,21.90
2017-06-09T16:01:54.685Z,21.60
2017-06-09T16:04:23.449Z,21.70
2017-06-09T16:06:52.209Z,21.60
2017-06-09T16:09:21.117Z,21.50
2017-06-09T16:11:49.877Z,21.40
2017-06-09T16:14:18.637Z,21.30
2017-06-09T16:19:49.873Z,21.10
2017-06-09T16:22:18.629Z,21.00
2017-06-09T16:24:47.398Z,21.10
2017-06-09T16:27:16.294Z,21.10
2017-06-09T16:29:45.053Z,21.20
2017-06-09T16:32:13.813Z,21.20
2017-06-09T16:34:42.585Z,21.30
2017-06-09T16:37:11.344Z,21.40
2017-06-09T16:39:40.115Z,21.30
2017-06-09T16:42:09.001Z,21.30
2017-06-09T16:44:37.765Z,21.40
2017-06-09T16:47:06.529Z,21.40
2017-06-09T16:49:35.417Z,21.40
2017-06-09T16:52:04.180Z,21.40
2017-06-09T16:54:32.977Z,21.10
2017-06-09T16:57:01.750Z,21.00
2017-06-09T16:59:30.516Z,21.20
2017-06-09T17:01:59.284Z,21.00
2017-06-09T17:04:28.052Z,21.00
2017-06-09T17:06:56.821Z,20.90
2017-06-09T17:09:25.589Z,20.90
2017-06-09T17:11:54.360Z,21.00
2017-06-09T17:14:23.128Z,21.10
2017-06-09T17:16:51.892Z,21.00
2017-06-09T17:19:20.793Z,21.10
2017-06-09T17:21:49.556Z,20.90
2017-06-09T17:24:18.325Z,20.90
2017-06-09T17:26:47.224Z,21.00
2017-06-09T17:29:16.136Z,21.20
2017-06-09T17:31:44.917Z,21.30
2017-06-09T17:34:13.884Z,21.20
2017-06-09T17:36:42.656Z,21.10
2017-06-09T17:39:11.424Z,21.10
2017-06-09T17:41:40.416Z,21.00
2017-06-09T17:44:09.136Z,21.00
2017-06-09T17:46:37.900Z,21.00
2017-06-09T17:49:06.696Z,20.90
2017-06-09T17:51:35.465Z,20.80
2017-06-09T17:54:04.232Z,20.70
2017-06-09T17:56:33.003Z,20.60
2017-06-09T17:59:01.768Z,20.30
2017-06-09T18:01:30.536Z,20.40
2017-06-09T18:03:59.312Z,20.20
2017-06-09T18:06:28.087Z,20.30
2017-06-09T18:08:56.843Z,20.30
2017-06-09T18:11:25.628Z,20.30
2017-06-09T18:13:54.407Z,20.20
2017-06-09T18:16:23.172Z,20.10
2017-06-09T18:18:51.947Z,19.90
2017-06-09T18:21:20.715Z,19.80
2017-06-09T18:23:49.515Z,19.70
2017-06-09T18:26:18.295Z,19.80
2017-06-09T18:28:47.104Z,19.90
2017-06-09T18:31:15.874Z,19.80
2017-06-09T18:33:44.651Z,19.70
2017-06-09T18:36:13.419Z,19.80
2017-06-09T18:38:42.184Z,19.70
2017-06-09T18:41:11.083Z,19.60
2017-06-09T18:43:39.856Z,19.50
2017-06-09T18:46:08.623Z,19.30
2017-06-09T18:48:37.407Z,19.40
2017-06-09T18:51:06.171Z,19.50
2017-06-09T18:53:34.951Z,19.50
2017-06-09T18:56:03.859Z,19.40
2017-06-09T18:58:32.631Z,19.30
2017-06-09T19:01:01.407Z,19.30
2017-06-09T19:03:30.319Z,19.10
2017-06-09T19:05:59.082Z,18.90
2017-06-09T19:08:27.855Z,18.80
2017-06-09T19:10:56.647Z,18.80
2017-06-09T19:13:25.427Z,18.90
2017-06-09T19:15:54.219Z,18.80
2017-06-09T19:18:22.998Z,18.80
2017-06-09T19:20:51.767Z,18.80
2017-06-09T19:23:20.546Z,18.70
2017-06-09T19:25:49.335Z,18.70
2017-06-09T19:28:18.103Z,18.60
2017-06-09T19:30:46.883Z,18.50
2017-06-09T19:33:15.682Z,18.50
2017-06-09T19:35:44.979Z,18.40
2017-06-09T19:38:13.719Z,18.60
2017-06-09T19:40:46.098Z,18.70
2017-06-09T19:43:14.871Z,18.60
2017-06-09T19:45:54.179Z,18.50
2017-06-09T19:48:28.239Z,18.50
2017-06-09T19:51:00.087Z,18.60
2017-06-09T19:53:37.427Z,18.60
2017-06-09T19:56:07.182Z,18.50
2017-06-09T19:58:37.906Z,18.50
2017-06-09T20:01:08.643Z,18.60
2017-06-09T20:03:40.790Z,18.60
2017-06-09T20:06:10.511Z,18.60
2017-06-09T20:08:45.019Z,18.40
2017-06-09T20:11:13.770Z,18.40
2017-06-09T20:13:42.542Z,18.40
2017-06-09T20:16:11.315Z,18.20
2017-06-09T20:18:40.110Z,18.00
2017-06-09T20:21:08.114Z,18.00
2017-06-09T20:23:36.882Z,18.00
2017-06-09T20:26:05.671Z,18.00
2017-06-09T20:28:34.455Z,17.80
2017-06-09T20:31:04.882Z,17.50
2017-06-09T20:33:35.953Z,17.40
2017-06-09T20:36:04.862Z,16.90
2017-06-09T20:38:33.646Z,16.50
2017-06-09T20:41:02.459Z,16.40
2017-06-09T20:43:31.266Z,16.20
2017-06-09T20:46:00.038Z,15.90
2017-06-09T20:48:32.282Z,15.90
2017-06-09T20:51:01.102Z,15.80
2017-06-09T20:53:29.882Z,16.10
2017-06-09T20:56:04.897Z,16.00
2017-06-09T20:58:36.258Z,16.00
2017-06-09T21:01:05.048Z,15.90
2017-06-09T21:03:33.870Z,15.70
2017-06-09T21:06:02.646Z,15.80
2017-06-09T21:08:32.442Z,15.70
2017-06-09T21:11:03.142Z,15.80
2017-06-09T21:13:35.338Z,15.80
2017-06-09T21:16:04.138Z,15.80
2017-06-09T21:18:36.172Z,15.90
2017-06-09T21:21:05.873Z,15.90
2017-06-09T21:23:34.685Z,15.70
2017-06-09T21:26:05.394Z,15.80
2017-06-09T21:28:34.229Z,15.80
2017-06-09T21:31:05.046Z,15.70
2017-06-09T21:33:39.450Z,15.50
2017-06-09T21:36:09.153Z,15.30
2017-06-09T21:38:43.457Z,15.20
2017-06-09T21:41:21.223Z,15.50
2017-06-09T21:43:50.434Z,15.60
2017-06-09T21:46:19.226Z,15.70
2017-06-09T21:48:48.917Z,15.90
2017-06-09T21:51:17.686Z,15.60
2017-06-09T21:53:47.441Z,15.50
2017-06-09T21:56:16.225Z,15.20
2017-06-09T21:58:51.654Z,15.10
2017-06-09T22:01:21.401Z,15.10
2017-06-09T22:03:50.176Z,15.10
2017-06-09T22:06:19.881Z,15.20
2017-06-09T22:08:51.761Z,15.20
2017-06-09T22:11:21.457Z,15.20
2017-06-09T22:13:50.222Z,15.20
2017-06-09T22:16:22.829Z,15.20
2017-06-09T22:18:51.613Z,15.30
2017-06-09T22:21:20.389Z,15.40
2017-06-09T22:23:57.785Z,15.60
2017-06-09T22:26:28.553Z,15.60
2017-06-09T22:28:58.464Z,15.70
2017-06-09T22:31:29.165Z,15.60
2017-06-09T22:34:05.881Z,15.50
2017-06-09T22:36:36.601Z,15.30
2017-06-09T22:39:06.413Z,15.00
2017-06-09T22:41:36.197Z,14.80
2017-06-09T22:44:04.973Z,14.80
2017-06-09T22:46:34.721Z,14.80
2017-06-09T22:49:04.396Z,14.90
2017-06-09T22:51:33.421Z,14.90
2017-06-09T22:54:02.320Z,15.00
2017-06-09T22:56:32.100Z,15.10
2017-06-09T22:59:00.872Z,15.10
2017-06-09T23:01:30.628Z,15.20
2017-06-09T23:03:59.400Z,15.20
2017-06-09T23:06:32.396Z,15.20
2017-06-09T23:09:05.868Z,15.00
2017-06-09T23:11:39.676Z,15.10
2017-06-09T23:14:09.376Z,15.20
2017-06-09T23:16:38.148Z,15.10
2017-06-09T23:19:07.992Z,14.90
2017-06-09T23:21:40.584Z,14.80
2017-06-09T23:24:11.280Z,14.90
2017-06-09T23:26:45.648Z,14.90
2017-06-09T23:29:14.552Z,14.90
2017-06-09T23:31:43.328Z,14.90
2017-06-09T23:34:12.100Z,15.00
2017-06-09T23:36:40.884Z,15.00
2017-06-09T23:39:09.664Z,15.00
2017-06-09T23:41:38.472Z,15.00
2017-06-09T23:44:07.391Z,14.80
2017-06-09T23:46:36.168Z,14.90
2017-06-09T23:49:04.988Z,14.80
2017-06-09T23:51:33.772Z,14.80
2017-06-09T23:54:02.551Z,14.90
2017-06-09T23:56:31.316Z,14.80
2017-06-09T23:59:00.127Z,14.60
